sensor_id;sensor_type;location;lat;lon;timestamp;temperature;humidity
18189;DHT22;9219;50.396;8.546;2024-03-17T00:01:49;8.50;99.90
18189;DHT22;9219;50.396;8.546;2024-03-17T00:04:16;7.90;99.90
18189;DHT22;9219;50.396;8.546;2024-03-17T00:06:54;7.70;99.90
18189;DHT22;9219;50.396;8.546;2024-03-17T00:09:34;7.90;99.90
18189;DHT22;9219;50.396;8.546;2024-03-17T00:12:15;8.10;99.90
18189;DHT22;9219;50.396;8.546;2024-03-17T00:14:55;8.20;99.90
18189;DHT22;9219;50.396;8.546;2024-03-17T00:20:19;8.20;99.90
18189;DHT22;9219;50.396;8.546;2024-03-17T00:22:59;8.10;99.90
18189;DHT22;9219;50.396;8.546;2024-03-17T00:29:45;8.30;99.90
18189;DHT22;9219;50.396;8.546;2024-03-17T00:59:57;7.80;99.90
18189;DHT22;9219;50.396;8.546;2024-03-17T01:14:38;8.00;99.90
18189;DHT22;9219;50.396;8.546;2024-03-17T01:17:06;8.10;99.90
18189;DHT22;9219;50.396;8.546;2024-03-17T01:19:36;8.00;99.90
18189;DHT22;9219;50.396;8.546;2024-03-17T01:22:06;7.90;99.90
18189;DHT22;9219;50.396;8.546;2024-03-17T01:24:33;7.70;99.90
18189;DHT22;9219;50.396;8.546;2024-03-17T01:27:01;7.60;99.90
18189;DHT22;9219;50.396;8.546;2024-03-17T01:32:24;7.60;99.90
18189;DHT22;9219;50.396;8.546;2024-03-17T01:38:16;7.60;99.90
18189;DHT22;9219;50.396;8.546;2024-03-17T01:40:44;7.60;99.90
18189;DHT22;9219;50.396;8.546;2024-03-17T01:43:10;7.70;99.90
18189;DHT22;9219;50.396;8.546;2024-03-17T01:45:38;7.70;99.90
18189;DHT22;9219;50.396;8.546;2024-03-17T01:48:12;7.70;99.90
18189;DHT22;9219;50.396;8.546;2024-03-17T01:55:46;7.50;99.90
18189;DHT22;9219;50.396;8.546;2024-03-17T01:58:14;7.70;99.90
18189;DHT22;9219;50.396;8.546;2024-03-17T02:00:41;7.60;99.90
18189;DHT22;9219;50.396;8.546;2024-03-17T02:03:09;7.60;99.90
18189;DHT22;9219;50.396;8.546;2024-03-17T02:05:36;7.50;99.90
18189;DHT22;9219;50.396;8.546;2024-03-17T02:08:04;7.50;99.90
18189;DHT22;9219;50.396;8.546;2024-03-17T02:10:31;7.50;99.90
18189;DHT22;9219;50.396;8.546;2024-03-17T02:18:03;7.80;99.90
18189;DHT22;9219;50.396;8.546;2024-03-17T02:20:30;7.70;99.90
18189;DHT22;9219;50.396;8.546;2024-03-17T02:23:12;7.60;99.90
18189;DHT22;9219;50.396;8.546;2024-03-17T02:25:39;7.60;99.90
18189;DHT22;9219;50.396;8.546;2024-03-17T02:28:06;7.50;99.90
18189;DHT22;9219;50.396;8.546;2024-03-17T02:30:33;7.70;99.90
18189;DHT22;9219;50.396;8.546;2024-03-17T02:33:01;7.80;99.90
18189;DHT22;9219;50.396;8.546;2024-03-17T02:40:28;7.80;99.90
18189;DHT22;9219;50.396;8.546;2024-03-17T02:42:55;7.80;99.90
18189;DHT22;9219;50.396;8.546;2024-03-17T02:45:23;7.70;99.90
18189;DHT22;9219;50.396;8.546;2024-03-17T02:47:50;7.80;99.90
18189;DHT22;9219;50.396;8.546;2024-03-17T02:50:17;7.80;99.90
18189;DHT22;9219;50.396;8.546;2024-03-17T02:52:44;7.70;99.90
18189;DHT22;9219;50.396;8.546;2024-03-17T02:55:11;7.60;99.90
18189;DHT22;9219;50.396;8.546;2024-03-17T03:02:40;7.40;99.90
18189;DHT22;9219;50.396;8.546;2024-03-17T03:05:07;7.10;99.90
18189;DHT22;9219;50.396;8.546;2024-03-17T03:07:34;7.00;99.90
18189;DHT22;9219;50.396;8.546;2024-03-17T03:10:02;7.00;99.90
18189;DHT22;9219;50.396;8.546;2024-03-17T03:12:29;7.00;99.90
18189;DHT22;9219;50.396;8.546;2024-03-17T03:14:57;7.00;99.90
18189;DHT22;9219;50.396;8.546;2024-03-17T03:17:24;7.20;99.90
18189;DHT22;9219;50.396;8.546;2024-03-17T03:22:31;7.10;99.90
18189;DHT22;9219;50.396;8.546;2024-03-17T03:24:58;7.30;99.90
18189;DHT22;9219;50.396;8.546;2024-03-17T03:27:25;7.30;99.90
18189;DHT22;9219;50.396;8.546;2024-03-17T03:29:53;7.30;99.90
18189;DHT22;9219;50.396;8.546;2024-03-17T03:32:22;7.30;99.90
18189;DHT22;9219;50.396;8.546;2024-03-17T03:34:49;7.50;99.90
18189;DHT22;9219;50.396;8.546;2024-03-17T03:40:10;7.40;99.90
18189;DHT22;9219;50.396;8.546;2024-03-17T03:42:44;7.30;99.90
18189;DHT22;9219;50.396;8.546;2024-03-17T03:45:11;7.20;99.90
18189;DHT22;9219;50.396;8.546;2024-03-17T03:47:39;7.40;99.90
18189;DHT22;9219;50.396;8.546;2024-03-17T03:50:07;7.40;99.90
18189;DHT22;9219;50.396;8.546;2024-03-17T03:52:35;7.40;99.90
18189;DHT22;9219;50.396;8.546;2024-03-17T03:55:03;7.40;99.90
18189;DHT22;9219;50.396;8.546;2024-03-17T04:01:36;7.50;99.90
18189;DHT22;9219;50.396;8.546;2024-03-17T04:04:05;7.50;99.90
18189;DHT22;9219;50.396;8.546;2024-03-17T04:06:32;7.50;99.90
18189;DHT22;9219;50.396;8.546;2024-03-17T04:08:59;7.60;99.90
18189;DHT22;9219;50.396;8.546;2024-03-17T04:11:28;7.40;99.90
18189;DHT22;9219;50.396;8.546;2024-03-17T04:13:55;7.50;99.90
18189;DHT22;9219;50.396;8.546;2024-03-17T04:16:23;7.50;99.90
18189;DHT22;9219;50.396;8.546;2024-03-17T04:23:56;7.50;99.90
18189;DHT22;9219;50.396;8.546;2024-03-17T04:26:23;7.50;99.90
18189;DHT22;9219;50.396;8.546;2024-03-17T04:28:51;7.50;99.90
18189;DHT22;9219;50.396;8.546;2024-03-17T04:31:19;7.40;99.90
18189;DHT22;9219;50.396;8.546;2024-03-17T04:33:52;7.30;99.90
18189;DHT22;9219;50.396;8.546;2024-03-17T04:36:19;7.30;99.90
18189;DHT22;9219;50.396;8.546;2024-03-17T04:38:46;7.30;99.90
18189;DHT22;9219;50.396;8.546;2024-03-17T04:46:19;7.30;99.90
18189;DHT22;9219;50.396;8.546;2024-03-17T04:48:46;7.30;99.90
18189;DHT22;9219;50.396;8.546;2024-03-17T04:51:15;7.40;99.90
18189;DHT22;9219;50.396;8.546;2024-03-17T04:53:42;7.40;99.90
18189;DHT22;9219;50.396;8.546;2024-03-17T04:56:10;7.40;99.90
18189;DHT22;9219;50.396;8.546;2024-03-17T04:58:39;7.40;99.90
18189;DHT22;9219;50.396;8.546;2024-03-17T05:01:06;7.40;99.90
18189;DHT22;9219;50.396;8.546;2024-03-17T05:06:16;7.30;99.90
18189;DHT22;9219;50.396;8.546;2024-03-17T05:08:45;7.10;99.90
18189;DHT22;9219;50.396;8.546;2024-03-17T05:11:13;7.20;99.90
18189;DHT22;9219;50.396;8.546;2024-03-17T05:13:42;7.20;99.90
18189;DHT22;9219;50.396;8.546;2024-03-17T05:16:09;7.20;99.90
18189;DHT22;9219;50.396;8.546;2024-03-17T05:18:37;7.30;99.90
18189;DHT22;9219;50.396;8.546;2024-03-17T05:21:06;7.30;99.90
18189;DHT22;9219;50.396;8.546;2024-03-17T05:27:45;7.30;99.90
18189;DHT22;9219;50.396;8.546;2024-03-17T05:30:12;7.40;99.90
18189;DHT22;9219;50.396;8.546;2024-03-17T05:32:42;7.20;99.90
18189;DHT22;9219;50.396;8.546;2024-03-17T05:35:12;7.30;99.90
18189;DHT22;9219;50.396;8.546;2024-03-17T05:37:39;7.30;99.90
18189;DHT22;9219;50.396;8.546;2024-03-17T05:40:10;7.20;99.90
18189;DHT22;9219;50.396;8.546;2024-03-17T05:42:41;7.10;99.90
18189;DHT22;9219;50.396;8.546;2024-03-17T05:50:15;7.10;99.90
18189;DHT22;9219;50.396;8.546;2024-03-17T05:52:42;6.70;99.90
18189;DHT22;9219;50.396;8.546;2024-03-17T05:55:09;6.70;99.90
18189;DHT22;9219;50.396;8.546;2024-03-17T05:57:40;6.80;99.90
18189;DHT22;9219;50.396;8.546;2024-03-17T06:00:08;6.90;99.90
18189;DHT22;9219;50.396;8.546;2024-03-17T06:02:36;7.00;99.90
18189;DHT22;9219;50.396;8.546;2024-03-17T06:05:03;6.90;99.90
18189;DHT22;9219;50.396;8.546;2024-03-17T06:12:36;7.00;99.90
18189;DHT22;9219;50.396;8.546;2024-03-17T06:15:04;6.80;99.90
18189;DHT22;9219;50.396;8.546;2024-03-17T06:17:33;6.90;99.90
18189;DHT22;9219;50.396;8.546;2024-03-17T06:20:00;7.00;99.90
18189;DHT22;9219;50.396;8.546;2024-03-17T06:22:29;7.00;99.90
18189;DHT22;9219;50.396;8.546;2024-03-17T06:24:57;7.10;99.90
18189;DHT22;9219;50.396;8.546;2024-03-17T06:27:24;7.00;99.90
18189;DHT22;9219;50.396;8.546;2024-03-17T06:34:56;7.10;99.90
18189;DHT22;9219;50.396;8.546;2024-03-17T06:37:23;7.10;99.90
18189;DHT22;9219;50.396;8.546;2024-03-17T06:39:51;7.10;99.90
18189;DHT22;9219;50.396;8.546;2024-03-17T06:42:19;7.20;99.90
18189;DHT22;9219;50.396;8.546;2024-03-17T06:44:46;7.20;99.90
18189;DHT22;9219;50.396;8.546;2024-03-17T06:47:13;7.20;99.90
18189;DHT22;9219;50.396;8.546;2024-03-17T06:49:40;7.10;99.90
18189;DHT22;9219;50.396;8.546;2024-03-17T06:55:55;7.10;99.90
18189;DHT22;9219;50.396;8.546;2024-03-17T06:58:22;7.20;99.90
18189;DHT22;9219;50.396;8.546;2024-03-17T07:00:54;7.20;99.90
18189;DHT22;9219;50.396;8.546;2024-03-17T07:03:23;7.20;99.90
18189;DHT22;9219;50.396;8.546;2024-03-17T07:05:52;7.30;99.90
18189;DHT22;9219;50.396;8.546;2024-03-17T07:08:20;7.30;99.90
18189;DHT22;9219;50.396;8.546;2024-03-17T07:11:02;7.40;99.90
18189;DHT22;9219;50.396;8.546;2024-03-17T07:18:19;7.50;99.90
18189;DHT22;9219;50.396;8.546;2024-03-17T07:20:47;7.50;99.90
18189;DHT22;9219;50.396;8.546;2024-03-17T07:23:14;7.60;99.90
18189;DHT22;9219;50.396;8.546;2024-03-17T07:25:42;7.60;99.90
18189;DHT22;9219;50.396;8.546;2024-03-17T07:28:17;7.80;99.90
18189;DHT22;9219;50.396;8.546;2024-03-17T07:30:48;7.60;99.90
18189;DHT22;9219;50.396;8.546;2024-03-17T07:33:20;7.70;99.90
18189;DHT22;9219;50.396;8.546;2024-03-17T07:40:56;8.10;99.90
18189;DHT22;9219;50.396;8.546;2024-03-17T07:43:24;8.20;99.90
18189;DHT22;9219;50.396;8.546;2024-03-17T07:45:58;8.30;99.90
18189;DHT22;9219;50.396;8.546;2024-03-17T07:48:25;8.40;99.90
18189;DHT22;9219;50.396;8.546;2024-03-17T07:50:56;8.50;99.90
18189;DHT22;9219;50.396;8.546;2024-03-17T07:53:23;8.70;99.90
18189;DHT22;9219;50.396;8.546;2024-03-17T07:56:00;8.80;99.90
18189;DHT22;9219;50.396;8.546;2024-03-17T08:03:01;9.00;99.90
18189;DHT22;9219;50.396;8.546;2024-03-17T08:05:28;9.10;99.90
18189;DHT22;9219;50.396;8.546;2024-03-17T08:07:55;9.20;99.90
18189;DHT22;9219;50.396;8.546;2024-03-17T08:10:22;9.30;99.90
18189;DHT22;9219;50.396;8.546;2024-03-17T08:12:50;9.30;99.90
18189;DHT22;9219;50.396;8.546;2024-03-17T08:15:19;9.40;99.90
18189;DHT22;9219;50.396;8.546;2024-03-17T08:17:47;9.60;99.90
18189;DHT22;9219;50.396;8.546;2024-03-17T08:22:58;9.70;99.90
18189;DHT22;9219;50.396;8.546;2024-03-17T08:25:26;9.80;99.90
18189;DHT22;9219;50.396;8.546;2024-03-17T08:27:54;10.00;99.90
18189;DHT22;9219;50.396;8.546;2024-03-17T08:30:21;10.10;99.90
18189;DHT22;9219;50.396;8.546;2024-03-17T08:32:53;10.30;99.90
18189;DHT22;9219;50.396;8.546;2024-03-17T08:35:21;10.30;99.90
18189;DHT22;9219;50.396;8.546;2024-03-17T08:37:51;10.20;99.90
18189;DHT22;9219;50.396;8.546;2024-03-17T08:45:11;10.50;99.90
18189;DHT22;9219;50.396;8.546;2024-03-17T08:47:44;10.60;99.90
18189;DHT22;9219;50.396;8.546;2024-03-17T08:50:12;10.80;99.90
18189;DHT22;9219;50.396;8.546;2024-03-17T08:52:39;10.80;99.90
18189;DHT22;9219;50.396;8.546;2024-03-17T08:55:08;10.80;99.90
18189;DHT22;9219;50.396;8.546;2024-03-17T08:57:42;11.10;99.90
18189;DHT22;9219;50.396;8.546;2024-03-17T09:00:15;11.40;99.90
18189;DHT22;9219;50.396;8.546;2024-03-17T09:08:32;11.90;99.90
18189;DHT22;9219;50.396;8.546;2024-03-17T09:11:11;11.80;99.90
18189;DHT22;9219;50.396;8.546;2024-03-17T09:13:45;11.90;99.90
18189;DHT22;9219;50.396;8.546;2024-03-17T09:16:12;11.90;99.90
18189;DHT22;9219;50.396;8.546;2024-03-17T09:18:43;11.90;99.90
18189;DHT22;9219;50.396;8.546;2024-03-17T09:21:17;12.00;99.90
18189;DHT22;9219;50.396;8.546;2024-03-17T09:23:46;11.60;99.90
18189;DHT22;9219;50.396;8.546;2024-03-17T09:31:44;11.80;99.90
18189;DHT22;9219;50.396;8.546;2024-03-17T09:41:47;12.40;99.90
18189;DHT22;9219;50.396;8.546;2024-03-17T09:44:23;12.70;99.90
18189;DHT22;9219;50.396;8.546;2024-03-17T09:46:55;13.00;99.90
18189;DHT22;9219;50.396;8.546;2024-03-17T09:49:52;13.00;99.90
18189;DHT22;9219;50.396;8.546;2024-03-17T09:52:49;13.20;99.90
18189;DHT22;9219;50.396;8.546;2024-03-17T10:00:21;13.30;99.90
18189;DHT22;9219;50.396;8.546;2024-03-17T10:02:51;13.70;99.90
18189;DHT22;9219;50.396;8.546;2024-03-17T10:05:44;13.40;99.90
18189;DHT22;9219;50.396;8.546;2024-03-17T10:08:24;13.50;99.90
18189;DHT22;9219;50.396;8.546;2024-03-17T10:14:08;13.40;99.90
18189;DHT22;9219;50.396;8.546;2024-03-17T10:18:47;13.40;99.90
18189;DHT22;9219;50.396;8.546;2024-03-17T10:24:34;13.60;99.90
18189;DHT22;9219;50.396;8.546;2024-03-17T10:27:02;13.60;99.90
18189;DHT22;9219;50.396;8.546;2024-03-17T10:29:36;13.80;99.90
18189;DHT22;9219;50.396;8.546;2024-03-17T10:32:12;14.00;99.90
18189;DHT22;9219;50.396;8.546;2024-03-17T10:34:39;14.00;99.90
18189;DHT22;9219;50.396;8.546;2024-03-17T10:37:10;14.00;99.90
18189;DHT22;9219;50.396;8.546;2024-03-17T10:39:40;14.10;99.90
18189;DHT22;9219;50.396;8.546;2024-03-17T10:42:39;14.00;99.90
18189;DHT22;9219;50.396;8.546;2024-03-17T10:54:17;14.30;99.90
18189;DHT22;9219;50.396;8.546;2024-03-17T10:57:32;14.30;99.90
18189;DHT22;9219;50.396;8.546;2024-03-17T11:00:00;14.50;99.90
18189;DHT22;9219;50.396;8.546;2024-03-17T11:02:41;14.50;99.90
18189;DHT22;9219;50.396;8.546;2024-03-17T11:05:13;14.40;99.90
18189;DHT22;9219;50.396;8.546;2024-03-17T11:07:41;14.30;99.90
18189;DHT22;9219;50.396;8.546;2024-03-17T11:10:20;14.40;99.90
18189;DHT22;9219;50.396;8.546;2024-03-17T11:13:04;14.50;99.90
18189;DHT22;9219;50.396;8.546;2024-03-17T11:15:52;14.40;99.90
18189;DHT22;9219;50.396;8.546;2024-03-17T11:18:41;14.40;99.90
18189;DHT22;9219;50.396;8.546;2024-03-17T11:21:39;14.40;99.90
18189;DHT22;9219;50.396;8.546;2024-03-17T11:24:24;14.70;99.90
18189;DHT22;9219;50.396;8.546;2024-03-17T11:35:50;15.00;99.90
18189;DHT22;9219;50.396;8.546;2024-03-17T11:38:52;15.30;99.90
18189;DHT22;9219;50.396;8.546;2024-03-17T11:41:39;15.00;99.90
18189;DHT22;9219;50.396;8.546;2024-03-17T11:44:23;15.10;99.90
18189;DHT22;9219;50.396;8.546;2024-03-17T11:47:33;15.00;99.90
18189;DHT22;9219;50.396;8.546;2024-03-17T11:50:15;15.00;99.90
18189;DHT22;9219;50.396;8.546;2024-03-17T11:52:43;15.10;99.90
18189;DHT22;9219;50.396;8.546;2024-03-17T12:03:20;15.10;99.90
18189;DHT22;9219;50.396;8.546;2024-03-17T12:05:47;15.10;99.90
18189;DHT22;9219;50.396;8.546;2024-03-17T12:08:20;15.10;99.90
18189;DHT22;9219;50.396;8.546;2024-03-17T12:10:53;14.80;99.90
18189;DHT22;9219;50.396;8.546;2024-03-17T12:13:23;14.90;99.90
18189;DHT22;9219;50.396;8.546;2024-03-17T12:16:18;14.60;99.90
18189;DHT22;9219;50.396;8.546;2024-03-17T12:19:08;14.80;99.90
18189;DHT22;9219;50.396;8.546;2024-03-17T12:29:29;14.90;99.90
18189;DHT22;9219;50.396;8.546;2024-03-17T12:32:00;14.80;99.90
18189;DHT22;9219;50.396;8.546;2024-03-17T12:34:45;14.70;99.90
18189;DHT22;9219;50.396;8.546;2024-03-17T12:37:20;13.80;99.90
18189;DHT22;9219;50.396;8.546;2024-03-17T12:39:49;13.00;99.90
18189;DHT22;9219;50.396;8.546;2024-03-17T12:42:46;12.90;99.90
18189;DHT22;9219;50.396;8.546;2024-03-17T12:45:35;12.80;99.90
18189;DHT22;9219;50.396;8.546;2024-03-17T12:48:21;13.00;99.90
18189;DHT22;9219;50.396;8.546;2024-03-17T12:51:15;12.90;99.90
18189;DHT22;9219;50.396;8.546;2024-03-17T12:54:34;13.20;99.90
18189;DHT22;9219;50.396;8.546;2024-03-17T13:04:12;14.50;99.90
18189;DHT22;9219;50.396;8.546;2024-03-17T13:07:12;14.00;99.90
18189;DHT22;9219;50.396;8.546;2024-03-17T13:13:00;13.80;99.90
18189;DHT22;9219;50.396;8.546;2024-03-17T13:15:31;13.30;99.90
18189;DHT22;9219;50.396;8.546;2024-03-17T13:18:37;12.90;99.90
18189;DHT22;9219;50.396;8.546;2024-03-17T13:21:33;13.40;99.90
18189;DHT22;9219;50.396;8.546;2024-03-17T13:24:13;14.10;99.90
18189;DHT22;9219;50.396;8.546;2024-03-17T13:27:23;13.80;99.90
18189;DHT22;9219;50.396;8.546;2024-03-17T13:30:09;13.70;99.90
18189;DHT22;9219;50.396;8.546;2024-03-17T13:47:21;13.70;99.90
18189;DHT22;9219;50.396;8.546;2024-03-17T13:50:37;14.80;99.90
18189;DHT22;9219;50.396;8.546;2024-03-17T13:56:52;15.30;99.90
18189;DHT22;9219;50.396;8.546;2024-03-17T14:00:08;15.40;99.90
18189;DHT22;9219;50.396;8.546;2024-03-17T14:02:57;15.80;99.90
18189;DHT22;9219;50.396;8.546;2024-03-17T14:08:17;16.10;99.90
18189;DHT22;9219;50.396;8.546;2024-03-17T14:13:45;16.00;99.90
18189;DHT22;9219;50.396;8.546;2024-03-17T14:16:12;15.50;99.90
18189;DHT22;9219;50.396;8.546;2024-03-17T14:18:40;15.50;99.90
18189;DHT22;9219;50.396;8.546;2024-03-17T14:21:07;15.60;99.90
18189;DHT22;9219;50.396;8.546;2024-03-17T14:23:35;15.70;99.90
18189;DHT22;9219;50.396;8.546;2024-03-17T14:26:03;15.70;99.90
18189;DHT22;9219;50.396;8.546;2024-03-17T14:28:31;15.70;99.90
18189;DHT22;9219;50.396;8.546;2024-03-17T14:35:16;15.80;99.90
18189;DHT22;9219;50.396;8.546;2024-03-17T14:37:44;15.70;99.90
18189;DHT22;9219;50.396;8.546;2024-03-17T14:40:14;15.60;99.90
18189;DHT22;9219;50.396;8.546;2024-03-17T14:42:54;15.40;99.90
18189;DHT22;9219;50.396;8.546;2024-03-17T14:45:39;15.10;99.90
18189;DHT22;9219;50.396;8.546;2024-03-17T14:48:07;15.20;99.90
18189;DHT22;9219;50.396;8.546;2024-03-17T14:50:36;15.40;99.90
18189;DHT22;9219;50.396;8.546;2024-03-17T14:58:13;15.50;99.90
18189;DHT22;9219;50.396;8.546;2024-03-17T15:00:45;15.50;99.90
18189;DHT22;9219;50.396;8.546;2024-03-17T15:03:19;15.50;99.90
18189;DHT22;9219;50.396;8.546;2024-03-17T15:05:46;15.40;99.90
18189;DHT22;9219;50.396;8.546;2024-03-17T15:08:16;15.10;99.90
18189;DHT22;9219;50.396;8.546;2024-03-17T15:10:49;15.10;99.90
18189;DHT22;9219;50.396;8.546;2024-03-17T15:13:23;15.20;99.90
18189;DHT22;9219;50.396;8.546;2024-03-17T15:15:50;15.10;99.90
18189;DHT22;9219;50.396;8.546;2024-03-17T15:23:38;15.10;99.90
18189;DHT22;9219;50.396;8.546;2024-03-17T15:26:20;14.60;99.90
18189;DHT22;9219;50.396;8.546;2024-03-17T15:28:57;14.60;99.90
18189;DHT22;9219;50.396;8.546;2024-03-17T15:31:29;14.40;99.90
18189;DHT22;9219;50.396;8.546;2024-03-17T15:33:57;14.30;99.90
18189;DHT22;9219;50.396;8.546;2024-03-17T15:36:25;14.30;99.90
18189;DHT22;9219;50.396;8.546;2024-03-17T15:38:57;14.30;99.90
18189;DHT22;9219;50.396;8.546;2024-03-17T15:41:26;14.20;99.90
18189;DHT22;9219;50.396;8.546;2024-03-17T15:47:25;14.30;99.90
18189;DHT22;9219;50.396;8.546;2024-03-17T15:49:52;14.10;99.90
18189;DHT22;9219;50.396;8.546;2024-03-17T15:52:21;14.00;99.90
18189;DHT22;9219;50.396;8.546;2024-03-17T15:54:49;14.10;99.90
18189;DHT22;9219;50.396;8.546;2024-03-17T15:57:16;14.20;99.90
18189;DHT22;9219;50.396;8.546;2024-03-17T15:59:46;14.00;99.90
18189;DHT22;9219;50.396;8.546;2024-03-17T16:02:13;13.90;99.90
18189;DHT22;9219;50.396;8.546;2024-03-17T16:09:44;14.10;99.90
18189;DHT22;9219;50.396;8.546;2024-03-17T16:12:13;13.90;99.90
18189;DHT22;9219;50.396;8.546;2024-03-17T16:14:42;14.10;99.90
18189;DHT22;9219;50.396;8.546;2024-03-17T16:17:10;14.00;99.90
18189;DHT22;9219;50.396;8.546;2024-03-17T16:19:39;14.10;99.90
18189;DHT22;9219;50.396;8.546;2024-03-17T16:22:09;14.10;99.90
18189;DHT22;9219;50.396;8.546;2024-03-17T16:24:36;14.00;99.90
18189;DHT22;9219;50.396;8.546;2024-03-17T16:32:10;14.30;99.90
18189;DHT22;9219;50.396;8.546;2024-03-17T16:34:37;14.10;99.90
18189;DHT22;9219;50.396;8.546;2024-03-17T16:37:05;14.10;99.90
18189;DHT22;9219;50.396;8.546;2024-03-17T16:39:32;13.90;99.90
18189;DHT22;9219;50.396;8.546;2024-03-17T16:41:59;13.90;99.90
18189;DHT22;9219;50.396;8.546;2024-03-17T16:44:33;13.80;99.90
18189;DHT22;9219;50.396;8.546;2024-03-17T16:47:26;13.90;99.90
18189;DHT22;9219;50.396;8.546;2024-03-17T16:54:59;13.90;99.90
18189;DHT22;9219;50.396;8.546;2024-03-17T16:57:27;13.80;99.90
18189;DHT22;9219;50.396;8.546;2024-03-17T16:59:57;13.90;99.90
18189;DHT22;9219;50.396;8.546;2024-03-17T17:02:24;13.70;99.90
18189;DHT22;9219;50.396;8.546;2024-03-17T17:04:51;13.70;99.90
18189;DHT22;9219;50.396;8.546;2024-03-17T17:07:19;13.60;99.90
18189;DHT22;9219;50.396;8.546;2024-03-17T17:09:46;13.50;99.90
18189;DHT22;9219;50.396;8.546;2024-03-17T17:17:17;13.60;99.90
18189;DHT22;9219;50.396;8.546;2024-03-17T17:19:45;13.50;99.90
18189;DHT22;9219;50.396;8.546;2024-03-17T17:22:14;13.50;99.90
18189;DHT22;9219;50.396;8.546;2024-03-17T17:24:44;13.60;99.90
18189;DHT22;9219;50.396;8.546;2024-03-17T17:27:13;13.40;99.90
18189;DHT22;9219;50.396;8.546;2024-03-17T17:29:40;13.50;99.90
18189;DHT22;9219;50.396;8.546;2024-03-17T17:32:07;13.50;99.90
18189;DHT22;9219;50.396;8.546;2024-03-17T17:39:39;13.30;99.90
18189;DHT22;9219;50.396;8.546;2024-03-17T17:42:06;13.30;99.90
18189;DHT22;9219;50.396;8.546;2024-03-17T17:44:33;13.30;99.90
18189;DHT22;9219;50.396;8.546;2024-03-17T17:47:01;13.20;99.90
18189;DHT22;9219;50.396;8.546;2024-03-17T17:49:29;13.20;99.90
18189;DHT22;9219;50.396;8.546;2024-03-17T17:51:56;13.10;99.90
18189;DHT22;9219;50.396;8.546;2024-03-17T17:54:23;12.90;99.90
18189;DHT22;9219;50.396;8.546;2024-03-17T18:01:57;12.90;99.90
18189;DHT22;9219;50.396;8.546;2024-03-17T18:04:25;12.60;99.90
18189;DHT22;9219;50.396;8.546;2024-03-17T18:06:52;12.60;99.90
18189;DHT22;9219;50.396;8.546;2024-03-17T18:09:19;12.50;99.90
18189;DHT22;9219;50.396;8.546;2024-03-17T18:11:50;12.60;99.90
18189;DHT22;9219;50.396;8.546;2024-03-17T18:14:17;12.60;99.90
18189;DHT22;9219;50.396;8.546;2024-03-17T18:16:48;12.60;99.90
18189;DHT22;9219;50.396;8.546;2024-03-17T18:24:21;12.50;99.90
18189;DHT22;9219;50.396;8.546;2024-03-17T18:26:48;12.40;99.90
18189;DHT22;9219;50.396;8.546;2024-03-17T18:29:15;12.30;99.90
18189;DHT22;9219;50.396;8.546;2024-03-17T18:31:43;12.30;99.90
18189;DHT22;9219;50.396;8.546;2024-03-17T18:34:10;12.40;99.90
18189;DHT22;9219;50.396;8.546;2024-03-17T18:36:37;12.20;99.90
18189;DHT22;9219;50.396;8.546;2024-03-17T18:39:05;12.20;99.90
18189;DHT22;9219;50.396;8.546;2024-03-17T18:46:38;12.20;99.90
18189;DHT22;9219;50.396;8.546;2024-03-17T18:49:05;12.20;99.90
18189;DHT22;9219;50.396;8.546;2024-03-17T18:51:36;12.20;99.90
18189;DHT22;9219;50.396;8.546;2024-03-17T18:54:04;12.20;99.90
18189;DHT22;9219;50.396;8.546;2024-03-17T18:56:31;12.10;99.90
18189;DHT22;9219;50.396;8.546;2024-03-17T18:58:59;12.00;99.90
18189;DHT22;9219;50.396;8.546;2024-03-17T19:01:27;11.80;99.90
18189;DHT22;9219;50.396;8.546;2024-03-17T19:08:54;11.70;99.90
18189;DHT22;9219;50.396;8.546;2024-03-17T19:11:21;11.80;99.90
18189;DHT22;9219;50.396;8.546;2024-03-17T19:13:48;12.00;99.90
18189;DHT22;9219;50.396;8.546;2024-03-17T19:16:15;12.00;99.90
18189;DHT22;9219;50.396;8.546;2024-03-17T19:18:44;11.90;99.90
18189;DHT22;9219;50.396;8.546;2024-03-17T19:21:14;11.80;99.90
18189;DHT22;9219;50.396;8.546;2024-03-17T19:23:42;11.80;99.90
18189;DHT22;9219;50.396;8.546;2024-03-17T19:31:14;11.80;99.90
18189;DHT22;9219;50.396;8.546;2024-03-17T19:33:41;11.80;99.90
18189;DHT22;9219;50.396;8.546;2024-03-17T19:36:09;11.70;99.90
18189;DHT22;9219;50.396;8.546;2024-03-17T19:38:37;11.70;99.90
18189;DHT22;9219;50.396;8.546;2024-03-17T19:41:06;11.60;99.90
18189;DHT22;9219;50.396;8.546;2024-03-17T19:43:35;11.70;99.90
18189;DHT22;9219;50.396;8.546;2024-03-17T19:46:03;11.60;99.90
18189;DHT22;9219;50.396;8.546;2024-03-17T19:53:38;11.70;99.90
18189;DHT22;9219;50.396;8.546;2024-03-17T19:56:06;11.70;99.90
18189;DHT22;9219;50.396;8.546;2024-03-17T19:58:34;11.60;99.90
18189;DHT22;9219;50.396;8.546;2024-03-17T20:01:01;11.50;99.90
18189;DHT22;9219;50.396;8.546;2024-03-17T20:03:29;11.60;99.90
18189;DHT22;9219;50.396;8.546;2024-03-17T20:05:57;11.50;99.90
18189;DHT22;9219;50.396;8.546;2024-03-17T20:08:24;11.40;99.90
18189;DHT22;9219;50.396;8.546;2024-03-17T20:15:57;11.40;99.90
18189;DHT22;9219;50.396;8.546;2024-03-17T20:18:24;11.40;99.90
18189;DHT22;9219;50.396;8.546;2024-03-17T20:20:51;11.50;99.90
18189;DHT22;9219;50.396;8.546;2024-03-17T20:23:19;11.40;99.90
18189;DHT22;9219;50.396;8.546;2024-03-17T20:25:46;11.60;99.90
18189;DHT22;9219;50.396;8.546;2024-03-17T20:28:13;11.50;99.90
18189;DHT22;9219;50.396;8.546;2024-03-17T20:30:41;11.40;99.90
18189;DHT22;9219;50.396;8.546;2024-03-17T20:38:08;11.40;99.90
18189;DHT22;9219;50.396;8.546;2024-03-17T20:40:38;11.30;99.90
18189;DHT22;9219;50.396;8.546;2024-03-17T20:43:06;11.20;99.90
18189;DHT22;9219;50.396;8.546;2024-03-17T20:45:33;11.30;99.90
18189;DHT22;9219;50.396;8.546;2024-03-17T20:48:01;11.20;99.90
18189;DHT22;9219;50.396;8.546;2024-03-17T20:50:28;11.30;99.90
18189;DHT22;9219;50.396;8.546;2024-03-17T20:52:56;11.40;99.90
18189;DHT22;9219;50.396;8.546;2024-03-17T21:00:28;11.30;99.90
18189;DHT22;9219;50.396;8.546;2024-03-17T21:02:56;11.00;99.90
18189;DHT22;9219;50.396;8.546;2024-03-17T21:05:25;11.00;99.90
18189;DHT22;9219;50.396;8.546;2024-03-17T21:07:55;11.00;99.90
18189;DHT22;9219;50.396;8.546;2024-03-17T21:10:22;11.00;99.90
18189;DHT22;9219;50.396;8.546;2024-03-17T21:12:50;11.10;99.90
18189;DHT22;9219;50.396;8.546;2024-03-17T21:15:20;11.20;99.90
18189;DHT22;9219;50.396;8.546;2024-03-17T21:22:52;11.20;99.90
18189;DHT22;9219;50.396;8.546;2024-03-17T21:25:23;11.20;99.90
18189;DHT22;9219;50.396;8.546;2024-03-17T21:27:51;11.20;99.90
18189;DHT22;9219;50.396;8.546;2024-03-17T21:30:20;11.20;99.90
18189;DHT22;9219;50.396;8.546;2024-03-17T21:32:47;11.20;99.90
18189;DHT22;9219;50.396;8.546;2024-03-17T21:35:16;11.30;99.90
18189;DHT22;9219;50.396;8.546;2024-03-17T21:37:44;11.30;99.90
18189;DHT22;9219;50.396;8.546;2024-03-17T21:45:16;11.10;99.90
18189;DHT22;9219;50.396;8.546;2024-03-17T21:47:46;11.10;99.90
18189;DHT22;9219;50.396;8.546;2024-03-17T21:50:13;11.10;99.90
18189;DHT22;9219;50.396;8.546;2024-03-17T21:52:41;11.10;99.90
18189;DHT22;9219;50.396;8.546;2024-03-17T21:55:08;11.00;99.90
18189;DHT22;9219;50.396;8.546;2024-03-17T21:57:36;11.10;99.90
18189;DHT22;9219;50.396;8.546;2024-03-17T22:00:04;11.00;99.90